createdAt,value
2019-03-04T00:00:05.445Z,10.75
2019-03-04T00:01:05.516Z,10.75
2019-03-04T00:02:05.684Z,10.75
2019-03-04T00:03:05.699Z,10.75
2019-03-04T00:04:05.678Z,10.75
2019-03-04T00:05:05.378Z,10.81
2019-03-04T00:06:05.692Z,10.81
2019-03-04T00:07:05.810Z,10.88
2019-03-04T00:08:05.197Z,10.88
2019-03-04T00:09:05.704Z,10.88
2019-03-04T00:10:05.686Z,10.88
2019-03-04T00:11:05.611Z,10.88
2019-03-04T00:12:05.196Z,10.88
2019-03-04T00:13:05.379Z,10.94
2019-03-04T00:14:05.925Z,10.88
2019-03-04T00:15:05.849Z,10.88
2019-03-04T00:16:05.912Z,10.94
2019-03-04T00:17:04.960Z,10.94
2019-03-04T00:18:05.296Z,10.94
2019-03-04T00:19:05.620Z,10.94
2019-03-04T00:20:05.622Z,10.94
2019-03-04T00:21:05.608Z,10.94
2019-03-04T00:22:05.686Z,10.94
2019-03-04T00:23:05.693Z,10.88
2019-03-04T00:24:05.769Z,10.88
2019-03-04T00:25:05.755Z,10.88
2019-03-04T00:26:05.831Z,10.88
2019-03-04T00:27:05.136Z,10.88
2019-03-04T00:28:05.145Z,10.88
2019-03-04T00:29:05.030Z,10.88
2019-03-04T00:30:05.144Z,10.88
2019-03-04T00:31:05.149Z,10.88
2019-03-04T00:32:05.325Z,10.88
2019-03-04T00:33:05.831Z,10.88
2019-03-04T00:34:05.400Z,10.88
2019-03-04T00:35:05.379Z,10.94
2019-03-04T00:36:05.455Z,10.88
2019-03-04T00:37:05.547Z,10.81
2019-03-04T00:38:05.618Z,10.81
2019-03-04T00:39:05.851Z,10.81
2019-03-04T00:40:06.033Z,10.81
2019-03-04T00:41:05.929Z,10.88
2019-03-04T00:42:05.855Z,10.81
2019-03-04T00:43:05.936Z,10.81
2019-03-04T00:44:05.857Z,10.75
2019-03-04T00:45:05.937Z,10.81
2019-03-04T00:46:05.382Z,10.75
2019-03-04T00:47:05.358Z,10.81
2019-03-04T00:48:05.544Z,10.81
2019-03-04T00:49:05.855Z,10.81
2019-03-04T00:50:06.036Z,10.81
2019-03-04T00:51:05.913Z,10.81
2019-03-04T00:52:05.140Z,10.81
2019-03-04T00:53:05.289Z,10.75
2019-03-04T00:54:05.538Z,10.75
2019-03-04T00:55:05.933Z,10.75
2019-03-04T00:56:04.971Z,10.75
2019-03-04T00:57:05.463Z,10.75
2019-03-04T00:58:05.368Z,10.75
2019-03-04T00:59:05.530Z,10.75
2019-03-04T01:00:05.447Z,10.88
2019-03-04T01:01:05.953Z,10.88
2019-03-04T01:02:05.135Z,11.00
2019-03-04T01:03:05.855Z,10.88
2019-03-04T01:04:05.140Z,10.81
2019-03-04T01:05:05.531Z,10.81
2019-03-04T01:06:05.518Z,10.88
2019-03-04T01:07:05.755Z,11.06
2019-03-04T01:08:05.213Z,11.25
2019-03-04T01:09:05.369Z,11.25
2019-03-04T01:10:05.368Z,11.31
2019-03-04T01:11:05.530Z,11.31
2019-03-04T01:12:05.537Z,11.25
2019-03-04T01:13:05.936Z,11.12
2019-03-04T01:14:05.215Z,11.12
2019-03-04T01:15:05.120Z,11.19
2019-03-04T01:16:05.539Z,11.12
2019-03-04T01:17:05.527Z,11.00
2019-03-04T01:18:05.937Z,10.88
2019-03-04T01:19:05.127Z,10.81
2019-03-04T01:20:05.784Z,10.75
2019-03-04T01:21:05.782Z,10.75
2019-03-04T01:22:05.850Z,10.62
2019-03-04T01:23:05.132Z,10.62
2019-03-04T01:24:05.216Z,10.56
2019-03-04T01:25:05.687Z,10.56
2019-03-04T01:26:05.855Z,10.56
2019-03-04T01:27:05.829Z,10.56
2019-03-04T01:28:05.465Z,10.50
2019-03-04T01:29:05.778Z,10.50
2019-03-04T01:30:05.216Z,10.44
2019-03-04T01:31:05.042Z,10.44
2019-03-04T01:32:05.448Z,10.44
2019-03-04T01:33:05.847Z,10.38
2019-03-04T01:34:05.945Z,10.44
2019-03-04T01:35:04.959Z,10.38
2019-03-04T01:36:05.943Z,10.38
2019-03-04T01:37:04.967Z,10.38
2019-03-04T01:38:05.441Z,10.38
2019-03-04T01:39:05.860Z,10.38
2019-03-04T01:40:05.931Z,10.38
2019-03-04T01:41:05.452Z,10.38
2019-03-04T01:42:05.853Z,10.38
2019-03-04T01:43:05.762Z,10.44
2019-03-04T01:44:05.370Z,10.44
2019-03-04T01:45:05.437Z,10.44
2019-03-04T01:46:05.943Z,10.38
2019-03-04T01:47:05.936Z,10.38
2019-03-04T01:48:05.048Z,10.44
2019-03-04T01:49:05.597Z,10.44
2019-03-04T01:50:05.612Z,10.44
2019-03-04T01:51:05.053Z,10.38
2019-03-04T01:52:05.144Z,10.44
2019-03-04T01:53:05.297Z,10.44
2019-03-04T01:54:05.540Z,10.44
2019-03-04T01:55:05.768Z,10.44
2019-03-04T01:56:05.294Z,10.44
2019-03-04T01:57:05.846Z,10.38
2019-03-04T01:58:05.293Z,10.38
2019-03-04T01:59:05.686Z,10.31
2019-03-04T02:00:05.304Z,10.38
2019-03-04T02:01:05.689Z,10.38
2019-03-04T02:02:05.133Z,10.44
2019-03-04T02:03:05.766Z,10.44
2019-03-04T02:04:05.292Z,10.44
2019-03-04T02:05:05.928Z,10.44
2019-03-04T02:06:05.296Z,10.44
2019-03-04T02:07:05.692Z,10.44
2019-03-04T02:08:05.854Z,10.44
2019-03-04T02:09:05.296Z,10.44
2019-03-04T02:10:05.618Z,10.44
2019-03-04T02:11:05.596Z,10.44
2019-03-04T02:12:05.605Z,10.50
2019-03-04T02:13:05.772Z,10.50
2019-03-04T02:14:05.129Z,10.44
2019-03-04T02:15:05.486Z,10.44
2019-03-04T02:16:05.847Z,10.44
2019-03-04T02:17:05.052Z,10.44
2019-03-04T02:18:05.058Z,10.44
2019-03-04T02:19:05.048Z,10.44
2019-03-04T02:20:05.126Z,10.50
2019-03-04T02:21:05.191Z,10.44
2019-03-04T02:22:05.304Z,10.50
2019-03-04T02:23:05.211Z,10.44
2019-03-04T02:24:05.688Z,10.44
2019-03-04T02:25:06.004Z,10.44
2019-03-04T02:26:04.969Z,10.44
2019-03-04T02:27:05.056Z,10.38
2019-03-04T02:28:04.987Z,10.38
2019-03-04T02:29:05.055Z,10.44
2019-03-04T02:30:05.451Z,10.38
2019-03-04T02:31:05.699Z,10.38
2019-03-04T02:32:06.016Z,10.38
2019-03-04T02:33:05.372Z,10.38
2019-03-04T02:34:05.365Z,10.38
2019-03-04T02:35:05.717Z,10.38
2019-03-04T02:36:05.698Z,10.38
2019-03-04T02:37:05.308Z,10.38
2019-03-04T02:38:05.778Z,10.44
2019-03-04T02:39:05.386Z,10.56
2019-03-04T02:40:05.306Z,10.56
2019-03-04T02:41:05.299Z,10.62
2019-03-04T02:42:05.461Z,10.62
2019-03-04T02:43:05.846Z,10.62
2019-03-04T02:44:04.968Z,10.62
2019-03-04T02:45:05.141Z,10.69
2019-03-04T02:46:05.622Z,10.69
2019-03-04T02:47:04.976Z,10.75
2019-03-04T02:48:05.620Z,10.69
2019-03-04T02:49:05.621Z,10.69
2019-03-04T02:50:05.075Z,10.75
2019-03-04T02:51:05.057Z,10.75
2019-03-04T02:52:05.136Z,10.69
2019-03-04T02:53:05.132Z,10.69
2019-03-04T02:54:05.957Z,10.69
2019-03-04T02:55:05.294Z,10.69
2019-03-04T02:56:05.552Z,10.69
2019-03-04T02:57:05.433Z,10.75
2019-03-04T02:58:05.484Z,10.75
2019-03-04T02:59:05.540Z,10.75
2019-03-04T03:00:05.786Z,10.69
2019-03-04T03:01:05.711Z,10.69
2019-03-04T03:02:05.770Z,10.69
2019-03-04T03:03:05.145Z,10.69
2019-03-04T03:04:05.531Z,10.75
2019-03-04T03:05:05.620Z,10.75
2019-03-04T03:06:05.053Z,10.75
2019-03-04T03:07:05.503Z,10.75
2019-03-04T03:08:05.448Z,10.75
2019-03-04T03:09:06.336Z,10.75
2019-03-04T03:10:05.856Z,10.75
2019-03-04T03:11:05.024Z,10.75
2019-03-04T03:12:05.204Z,10.75
2019-03-04T03:13:05.313Z,10.81
2019-03-04T03:14:05.859Z,10.75
2019-03-04T03:15:05.965Z,10.75
2019-03-04T03:16:05.926Z,10.75
2019-03-04T03:17:05.933Z,10.75
2019-03-04T03:18:05.944Z,10.75
2019-03-04T03:19:05.054Z,10.69
2019-03-04T03:20:05.126Z,10.69
2019-03-04T03:21:05.044Z,10.56
2019-03-04T03:22:05.451Z,10.44
2019-03-04T03:23:05.602Z,10.44
2019-03-04T03:24:05.728Z,10.31
2019-03-04T03:25:05.772Z,10.31
2019-03-04T03:26:05.387Z,10.25
2019-03-04T03:27:05.388Z,10.31
2019-03-04T03:28:05.302Z,10.31
2019-03-04T03:29:05.286Z,10.38
2019-03-04T03:30:05.519Z,10.38
2019-03-04T03:31:05.630Z,10.50
2019-03-04T03:32:05.593Z,10.50
2019-03-04T03:33:05.609Z,10.56
2019-03-04T03:34:05.685Z,10.62
2019-03-04T03:35:07.985Z,10.56
2019-03-04T03:36:05.193Z,10.44
2019-03-04T03:37:05.226Z,10.38
2019-03-04T03:38:05.871Z,10.44
2019-03-04T03:39:05.871Z,10.44
2019-03-04T03:40:05.859Z,10.50
2019-03-04T03:41:05.054Z,10.56
2019-03-04T03:42:05.457Z,10.69
2019-03-04T03:43:05.611Z,10.69
2019-03-04T03:44:04.964Z,10.75
2019-03-04T03:45:05.130Z,10.81
2019-03-04T03:46:05.435Z,10.88
2019-03-04T03:47:05.538Z,10.81
2019-03-04T03:48:05.669Z,10.81
2019-03-04T03:49:05.291Z,10.75
2019-03-04T03:50:05.677Z,10.81
2019-03-04T03:51:05.232Z,10.81
2019-03-04T03:52:05.193Z,10.88
2019-03-04T03:53:06.588Z,10.94
2019-03-04T03:54:05.851Z,10.75
2019-03-04T03:55:05.871Z,10.81
2019-03-04T03:56:05.059Z,10.81
2019-03-04T03:57:05.076Z,10.88
2019-03-04T03:58:05.371Z,10.88
2019-03-04T03:59:05.458Z,10.88
2019-03-04T04:00:05.846Z,10.88
2019-03-04T04:01:04.966Z,10.94
2019-03-04T04:02:05.223Z,10.94
2019-03-04T04:03:05.301Z,10.94
2019-03-04T04:04:05.608Z,10.88
2019-03-04T04:05:05.216Z,10.88
2019-03-04T04:06:05.665Z,10.88
2019-03-04T04:07:05.693Z,10.94
2019-03-04T04:08:05.685Z,10.94
2019-03-04T04:09:05.069Z,10.94
2019-03-04T04:10:05.055Z,10.94
2019-03-04T04:11:05.070Z,10.88
2019-03-04T04:12:05.234Z,10.88
2019-03-04T04:13:05.143Z,11.06
2019-03-04T04:14:05.211Z,10.94
2019-03-04T04:15:05.695Z,10.81
2019-03-04T04:16:05.677Z,10.81
2019-03-04T04:17:05.469Z,10.69
2019-03-04T04:18:05.465Z,10.62
2019-03-04T04:19:05.704Z,10.56
2019-03-04T04:20:05.627Z,10.56
2019-03-04T04:21:05.694Z,10.56
2019-03-04T04:22:05.671Z,10.56
2019-03-04T04:23:05.367Z,10.56
2019-03-04T04:24:05.699Z,10.50
2019-03-04T04:25:05.686Z,10.50
2019-03-04T04:26:05.201Z,10.50
2019-03-04T04:27:05.866Z,10.50
2019-03-04T04:28:05.929Z,10.50
2019-03-04T04:29:05.846Z,10.50
2019-03-04T04:30:05.281Z,10.50
2019-03-04T04:31:05.311Z,10.50
2019-03-04T04:32:05.598Z,10.56
2019-03-04T04:33:05.536Z,10.56
2019-03-04T04:34:05.772Z,10.56
2019-03-04T04:35:05.125Z,10.56
2019-03-04T04:36:05.668Z,10.56
2019-03-04T04:37:05.295Z,10.56
2019-03-04T04:38:05.289Z,10.50
2019-03-04T04:39:05.858Z,10.50
2019-03-04T04:40:05.848Z,10.50
2019-03-04T04:41:05.848Z,10.50
2019-03-04T04:42:05.043Z,10.56
2019-03-04T04:43:05.785Z,10.50
2019-03-04T04:44:05.770Z,10.56
2019-03-04T04:45:05.601Z,10.56
2019-03-04T04:46:04.976Z,10.56
2019-03-04T04:47:05.861Z,10.56
2019-03-04T04:48:05.758Z,10.56
2019-03-04T04:49:05.851Z,10.56
2019-03-04T04:50:05.919Z,10.56
2019-03-04T04:51:05.391Z,10.56
2019-03-04T04:52:05.203Z,10.62
2019-03-04T04:53:05.529Z,10.62
2019-03-04T04:54:05.121Z,10.62
2019-03-04T04:55:05.531Z,10.62
2019-03-04T04:56:05.923Z,10.56
2019-03-04T04:57:06.018Z,10.56
2019-03-04T04:58:05.916Z,10.56
2019-03-04T04:59:05.534Z,10.50
2019-03-04T05:00:06.419Z,10.50
2019-03-04T05:01:05.624Z,10.50
2019-03-04T05:02:05.525Z,10.50
2019-03-04T05:03:05.052Z,10.50
2019-03-04T05:04:05.033Z,10.50
2019-03-04T05:05:05.174Z,10.50
2019-03-04T05:06:05.106Z,10.50
2019-03-04T05:07:05.525Z,10.50
2019-03-04T05:08:05.530Z,10.50
2019-03-04T05:09:05.604Z,10.50
2019-03-04T05:10:05.851Z,10.50
2019-03-04T05:11:05.219Z,10.50
2019-03-04T05:12:05.134Z,10.56
2019-03-04T05:13:05.292Z,10.56
2019-03-04T05:14:05.371Z,10.50
2019-03-04T05:15:05.774Z,10.56
2019-03-04T05:16:05.680Z,10.56
2019-03-04T05:17:05.374Z,10.56
2019-03-04T05:18:05.439Z,10.56
2019-03-04T05:19:05.545Z,10.56
2019-03-04T05:20:05.458Z,10.62
2019-03-04T05:21:05.451Z,10.62
2019-03-04T05:22:05.454Z,10.62
2019-03-04T05:23:05.364Z,10.62
2019-03-04T05:24:04.973Z,10.69
2019-03-04T05:25:05.507Z,10.69
2019-03-04T05:26:05.199Z,10.69
2019-03-04T05:27:05.698Z,10.69
2019-03-04T05:28:05.780Z,10.69
2019-03-04T05:29:05.866Z,10.69
2019-03-04T05:30:05.052Z,10.69
2019-03-04T05:31:05.454Z,10.81
2019-03-04T05:32:05.935Z,10.81
2019-03-04T05:33:06.020Z,10.81
2019-03-04T05:34:05.062Z,10.81
2019-03-04T05:35:04.972Z,10.88
2019-03-04T05:36:05.315Z,10.94
2019-03-04T05:37:05.132Z,11.00
2019-03-04T05:38:05.446Z,11.00
2019-03-04T05:39:05.437Z,11.06
2019-03-04T05:40:05.521Z,11.06
2019-03-04T05:41:05.775Z,11.06
2019-03-04T05:42:05.200Z,11.06
2019-03-04T05:43:05.206Z,11.12
2019-03-04T05:44:05.719Z,11.12
2019-03-04T05:45:05.833Z,11.19
2019-03-04T05:46:05.043Z,11.12
2019-03-04T05:47:04.988Z,11.19
2019-03-04T05:48:07.517Z,11.12
2019-03-04T05:49:05.782Z,11.12
2019-03-04T05:50:05.049Z,11.50
2019-03-04T05:51:05.702Z,11.81
2019-03-04T05:52:05.700Z,12.00
2019-03-04T05:53:05.388Z,12.44
2019-03-04T05:54:05.357Z,12.69
2019-03-04T05:55:05.374Z,13.19
2019-03-04T05:56:05.206Z,13.50
2019-03-04T05:57:05.863Z,13.88
2019-03-04T05:58:05.369Z,14.06
2019-03-04T05:59:05.287Z,14.06
2019-03-04T06:00:05.934Z,14.25
2019-03-04T06:01:04.979Z,14.44
2019-03-04T06:02:05.236Z,14.31
2019-03-04T06:03:05.704Z,14.19
2019-03-04T06:04:05.597Z,14.12
2019-03-04T06:05:05.132Z,14.31
2019-03-04T06:06:05.285Z,14.50
2019-03-04T06:07:05.774Z,14.56
2019-03-04T06:08:05.754Z,14.75
2019-03-04T06:09:05.853Z,14.94
2019-03-04T06:10:04.974Z,14.94
2019-03-04T06:11:05.211Z,14.75
2019-03-04T06:12:05.609Z,14.81
2019-03-04T06:13:05.697Z,14.88
2019-03-04T06:14:05.057Z,14.81
2019-03-04T06:15:05.310Z,14.56
2019-03-04T06:16:05.359Z,14.38
2019-03-04T06:17:05.451Z,14.25
2019-03-04T06:18:05.924Z,14.12
2019-03-04T06:19:06.022Z,14.44
2019-03-04T06:20:06.014Z,14.50
2019-03-04T06:21:04.958Z,14.56
2019-03-04T06:22:05.300Z,14.44
2019-03-04T06:23:05.124Z,14.50
2019-03-04T06:24:05.200Z,14.69
2019-03-04T06:25:07.391Z,14.69
2019-03-04T06:26:04.964Z,14.62
2019-03-04T06:27:04.955Z,14.88
2019-03-04T06:28:05.107Z,15.06
2019-03-04T06:29:05.204Z,15.06
2019-03-04T06:30:05.763Z,15.06
2019-03-04T06:31:05.060Z,15.00
2019-03-04T06:32:05.368Z,15.00
2019-03-04T06:33:06.017Z,15.19
2019-03-04T06:34:05.998Z,15.44
2019-03-04T06:35:05.046Z,15.44
2019-03-04T06:36:05.110Z,15.56
2019-03-04T06:37:05.132Z,15.62
2019-03-04T06:38:05.124Z,15.62
2019-03-04T06:39:05.121Z,15.25
2019-03-04T06:40:05.281Z,15.00
2019-03-04T06:41:05.933Z,14.69
2019-03-04T06:42:05.853Z,14.44
2019-03-04T06:43:04.969Z,14.12
2019-03-04T06:44:05.428Z,13.94
2019-03-04T06:45:05.454Z,13.81
2019-03-04T06:46:05.687Z,13.69
2019-03-04T06:47:05.387Z,13.56
2019-03-04T06:48:05.205Z,13.44
2019-03-04T06:49:05.305Z,13.31
2019-03-04T06:50:05.282Z,13.12
2019-03-04T06:51:05.528Z,13.00
2019-03-04T06:52:05.056Z,12.88
2019-03-04T06:53:05.300Z,12.75
2019-03-04T06:54:05.126Z,12.69
2019-03-04T06:55:05.772Z,12.56
2019-03-04T06:56:05.921Z,12.50
2019-03-04T06:57:05.855Z,12.38
2019-03-04T06:58:05.835Z,12.25
2019-03-04T06:59:05.398Z,12.19
2019-03-04T07:00:05.530Z,12.06
2019-03-04T07:01:05.685Z,12.00
2019-03-04T07:02:06.101Z,12.00
2019-03-04T07:03:05.932Z,12.00
2019-03-04T07:04:05.696Z,11.94
2019-03-04T07:05:05.637Z,11.88
2019-03-04T07:06:06.017Z,11.81
2019-03-04T07:07:05.357Z,11.81
2019-03-04T07:08:05.520Z,11.69
2019-03-04T07:09:05.525Z,11.75
2019-03-04T07:10:05.145Z,11.69
2019-03-04T07:11:05.060Z,11.62
2019-03-04T07:12:05.458Z,11.56
2019-03-04T07:13:05.765Z,11.50
2019-03-04T07:14:05.847Z,11.56
2019-03-04T07:15:05.848Z,11.62
2019-03-04T07:16:05.449Z,11.75
2019-03-04T07:17:05.126Z,11.81
2019-03-04T07:18:05.205Z,11.81
2019-03-04T07:19:05.881Z,11.81
2019-03-04T07:20:05.864Z,11.69
2019-03-04T07:21:05.938Z,11.62
2019-03-04T07:22:05.352Z,11.56
2019-03-04T07:23:05.948Z,11.56
2019-03-04T07:24:05.910Z,11.50
2019-03-04T07:25:05.302Z,11.44
2019-03-04T07:26:05.281Z,11.38
2019-03-04T07:27:05.699Z,11.38
2019-03-04T07:28:05.506Z,11.31
2019-03-04T07:29:05.613Z,11.31
2019-03-04T07:30:05.693Z,11.25
2019-03-04T07:31:05.603Z,11.25
2019-03-04T07:32:05.922Z,11.25
2019-03-04T07:33:05.042Z,11.19
2019-03-04T07:34:05.602Z,11.31
2019-03-04T07:35:06.019Z,11.38
2019-03-04T07:36:05.449Z,11.44
2019-03-04T07:37:05.312Z,11.50
2019-03-04T07:38:05.369Z,11.44
2019-03-04T07:39:05.299Z,11.56
2019-03-04T07:40:05.531Z,11.62
2019-03-04T07:41:05.460Z,11.69
2019-03-04T07:42:05.356Z,11.62
2019-03-04T07:43:05.625Z,11.62
2019-03-04T07:44:05.523Z,11.56
2019-03-04T07:45:05.138Z,11.56
2019-03-04T07:46:05.114Z,11.62
2019-03-04T07:47:04.963Z,11.62
2019-03-04T07:48:05.907Z,11.69
2019-03-04T07:49:05.915Z,11.69
2019-03-04T07:50:05.119Z,11.75
2019-03-04T07:51:05.123Z,11.81
2019-03-04T07:52:05.939Z,11.88
2019-03-04T07:53:05.131Z,11.94
2019-03-04T07:54:04.980Z,12.00
2019-03-04T07:55:05.445Z,12.06
2019-03-04T07:56:05.400Z,12.12
2019-03-04T07:57:05.374Z,12.19
2019-03-04T07:58:05.363Z,12.31
2019-03-04T07:59:05.375Z,12.44
2019-03-04T08:00:05.287Z,12.50
2019-03-04T08:01:05.459Z,12.56
2019-03-04T08:02:05.442Z,12.62
2019-03-04T08:03:05.529Z,12.69
2019-03-04T08:04:05.841Z,12.75
2019-03-04T08:05:06.020Z,12.81
2019-03-04T08:06:06.011Z,12.88
2019-03-04T08:07:04.971Z,13.06
2019-03-04T08:08:05.124Z,13.12
2019-03-04T08:09:05.532Z,13.19
2019-03-04T08:10:05.514Z,13.25
2019-03-04T08:11:05.848Z,13.38
2019-03-04T08:12:05.066Z,13.50
2019-03-04T08:13:05.132Z,13.62
2019-03-04T08:14:05.434Z,13.62
2019-03-04T08:15:05.926Z,13.62
2019-03-04T08:16:05.452Z,13.62
2019-03-04T08:17:05.599Z,13.62
2019-03-04T08:18:05.684Z,13.69
2019-03-04T08:19:05.703Z,13.69
2019-03-04T08:20:05.049Z,13.75
2019-03-04T08:21:05.066Z,13.75
2019-03-04T08:22:05.033Z,13.81
2019-03-04T08:23:05.452Z,13.81
2019-03-04T08:24:05.531Z,13.75
2019-03-04T08:25:06.119Z,13.75
2019-03-04T08:26:05.923Z,13.62
2019-03-04T08:27:05.865Z,13.25
2019-03-04T08:28:06.023Z,13.44
2019-03-04T08:29:05.065Z,13.56
2019-03-04T08:30:05.913Z,13.62
2019-03-04T08:31:04.975Z,13.75
2019-03-04T08:32:05.054Z,13.81
2019-03-04T08:33:04.973Z,13.81
2019-03-04T08:34:05.928Z,13.81
2019-03-04T08:35:05.932Z,13.88
2019-03-04T08:36:05.272Z,13.81
2019-03-04T08:37:05.284Z,13.81
2019-03-04T08:38:05.444Z,13.81
2019-03-04T08:39:05.871Z,13.81
2019-03-04T08:40:05.760Z,13.75
2019-03-04T08:41:05.843Z,13.75
2019-03-04T08:42:05.278Z,13.69
2019-03-04T08:43:05.694Z,13.69
2019-03-04T08:44:05.761Z,13.69
2019-03-04T08:45:05.120Z,13.75
2019-03-04T08:46:05.133Z,13.88
2019-03-04T08:47:05.298Z,13.88
2019-03-04T08:48:05.835Z,13.81
2019-03-04T08:49:05.456Z,13.75
2019-03-04T08:50:05.856Z,13.69
2019-03-04T08:51:04.973Z,13.69
2019-03-04T08:52:05.058Z,13.69
2019-03-04T08:53:06.023Z,13.75
2019-03-04T08:54:05.916Z,13.88
2019-03-04T08:55:04.968Z,13.88
2019-03-04T08:56:05.526Z,13.94
2019-03-04T08:57:05.444Z,14.00
2019-03-04T08:58:05.542Z,14.06
2019-03-04T08:59:05.528Z,14.06
2019-03-04T09:00:05.928Z,14.06
2019-03-04T09:01:05.930Z,14.25
2019-03-04T09:02:05.060Z,14.31
2019-03-04T09:03:05.043Z,14.31
2019-03-04T09:04:05.033Z,14.31
2019-03-04T09:05:05.131Z,14.31
2019-03-04T09:06:05.388Z,14.25
2019-03-04T09:07:05.239Z,14.31
2019-03-04T09:08:05.450Z,14.25
2019-03-04T09:09:05.384Z,14.25
2019-03-04T09:10:05.771Z,14.25
2019-03-04T09:11:05.291Z,14.25
2019-03-04T09:12:05.131Z,14.38
2019-03-04T09:13:05.433Z,14.44
2019-03-04T09:14:05.454Z,14.38
2019-03-04T09:15:05.515Z,14.38
2019-03-04T09:16:05.542Z,14.12
2019-03-04T09:17:05.354Z,14.00
2019-03-04T09:18:04.976Z,13.88
2019-03-04T09:19:05.052Z,13.81
2019-03-04T09:20:05.615Z,13.75
2019-03-04T09:21:05.676Z,13.81
2019-03-04T09:22:05.777Z,13.81
2019-03-04T09:23:05.126Z,13.69
2019-03-04T09:24:05.062Z,13.62
2019-03-04T09:25:05.193Z,13.56
2019-03-04T09:26:05.196Z,13.56
2019-03-04T09:27:05.276Z,13.50
2019-03-04T09:28:05.206Z,13.44
2019-03-04T09:29:10.375Z,13.44
2019-03-04T09:30:05.705Z,13.44
2019-03-04T09:31:05.063Z,13.44
2019-03-04T09:32:05.055Z,13.44
2019-03-04T09:33:05.120Z,13.38
2019-03-04T09:34:05.134Z,13.44
2019-03-04T09:35:05.766Z,13.44
2019-03-04T09:36:05.602Z,13.44
2019-03-04T09:37:05.855Z,13.44
2019-03-04T09:38:05.065Z,13.50
2019-03-04T09:39:05.922Z,13.50
2019-03-04T09:40:05.476Z,13.50
2019-03-04T09:41:05.358Z,13.50
2019-03-04T09:42:05.329Z,13.50
2019-03-04T09:43:05.693Z,13.50
2019-03-04T09:44:05.767Z,13.44
2019-03-04T09:45:05.383Z,13.44
2019-03-04T09:46:05.374Z,13.44
2019-03-04T09:47:05.705Z,13.44
2019-03-04T09:48:05.524Z,13.44
2019-03-04T09:49:05.045Z,13.50
2019-03-04T09:50:05.133Z,13.50
2019-03-04T09:51:05.197Z,13.50
2019-03-04T09:52:05.781Z,13.50
2019-03-04T09:53:05.590Z,13.50
2019-03-04T09:54:05.588Z,13.56
2019-03-04T09:55:05.752Z,13.56
2019-03-04T09:56:05.766Z,13.56
2019-03-04T09:57:05.753Z,13.56
2019-03-04T09:58:05.205Z,13.56
2019-03-04T09:59:05.511Z,13.56
2019-03-04T10:00:05.053Z,13.50
2019-03-04T10:01:05.921Z,13.50
2019-03-04T10:02:05.030Z,13.44
2019-03-04T10:03:05.137Z,13.50
2019-03-04T10:04:05.045Z,13.44
2019-03-04T10:05:05.049Z,13.44
2019-03-04T10:06:05.032Z,13.44
2019-03-04T10:07:05.455Z,13.44
2019-03-04T10:08:05.446Z,13.44
2019-03-04T10:09:05.381Z,13.44
2019-03-04T10:10:05.363Z,13.50
2019-03-04T10:11:05.939Z,13.50
2019-03-04T10:12:05.759Z,13.50
2019-03-04T10:13:05.214Z,13.50
2019-03-04T10:14:05.203Z,13.50
2019-03-04T10:15:07.877Z,13.50
2019-03-04T10:16:05.285Z,13.50
2019-03-04T10:17:05.284Z,13.50
2019-03-04T10:18:05.666Z,13.50
2019-03-04T10:19:05.057Z,13.50
2019-03-04T10:20:05.217Z,13.50
2019-03-04T10:21:05.216Z,13.56
2019-03-04T10:22:05.410Z,13.56
2019-03-04T10:23:05.456Z,13.56
2019-03-04T10:24:05.440Z,13.56
2019-03-04T10:25:05.530Z,13.56
2019-03-04T10:26:05.692Z,13.56
2019-03-04T10:27:05.952Z,13.56
2019-03-04T10:28:05.830Z,13.56
2019-03-04T10:29:05.458Z,13.62
2019-03-04T10:30:05.376Z,13.62
2019-03-04T10:31:05.764Z,13.62
2019-03-04T10:32:05.193Z,13.62
2019-03-04T10:33:05.210Z,13.62
2019-03-04T10:34:05.691Z,13.62
2019-03-04T10:35:05.705Z,13.62
2019-03-04T10:36:05.618Z,13.69
2019-03-04T10:37:06.019Z,13.69
2019-03-04T10:38:05.861Z,13.69
2019-03-04T10:39:05.848Z,13.75
2019-03-04T10:40:05.197Z,13.75
2019-03-04T10:41:05.770Z,13.75
2019-03-04T10:42:05.360Z,13.75
2019-03-04T10:43:05.612Z,13.75
2019-03-04T10:44:05.692Z,13.75
2019-03-04T10:45:05.769Z,13.81
2019-03-04T10:46:05.925Z,13.81
2019-03-04T10:47:04.894Z,13.81
2019-03-04T10:48:05.451Z,13.81
2019-03-04T10:49:05.618Z,13.81
2019-03-04T10:50:05.924Z,13.81
2019-03-04T10:51:05.386Z,13.81
2019-03-04T10:52:05.278Z,13.81
2019-03-04T10:53:05.051Z,13.81
2019-03-04T10:54:05.449Z,13.81
2019-03-04T10:55:05.449Z,13.81
2019-03-04T10:56:05.441Z,13.81
2019-03-04T10:57:05.543Z,13.81
2019-03-04T10:58:05.749Z,13.81
2019-03-04T10:59:05.690Z,13.81
2019-03-04T11:00:05.691Z,13.81
2019-03-04T11:01:05.033Z,13.88
2019-03-04T11:02:05.205Z,13.88
2019-03-04T11:03:05.585Z,13.94
2019-03-04T11:04:05.613Z,13.88
2019-03-04T11:05:05.050Z,13.88
2019-03-04T11:06:05.352Z,13.88
2019-03-04T11:07:05.300Z,13.88
2019-03-04T11:08:05.448Z,13.88
2019-03-04T11:09:05.363Z,13.88
2019-03-04T11:10:05.858Z,13.88
2019-03-04T11:11:05.694Z,13.94
2019-03-04T11:12:05.606Z,13.94
2019-03-04T11:13:05.692Z,13.94
2019-03-04T11:14:05.121Z,13.94
2019-03-04T11:15:05.221Z,13.94
2019-03-04T11:16:05.124Z,13.94
2019-03-04T11:17:05.785Z,13.88
2019-03-04T11:18:05.618Z,13.88
2019-03-04T11:19:05.607Z,13.88
2019-03-04T11:20:05.542Z,13.88
2019-03-04T11:21:05.623Z,13.88
2019-03-04T11:22:05.521Z,13.81
2019-03-04T11:23:05.450Z,13.81
2019-03-04T11:24:05.369Z,13.81
2019-03-04T11:25:05.376Z,13.81
2019-03-04T11:26:05.368Z,13.81
2019-03-04T11:27:05.691Z,13.81
2019-03-04T11:28:05.113Z,13.81
2019-03-04T11:29:05.466Z,13.81
2019-03-04T11:30:05.292Z,13.81
2019-03-04T11:31:05.210Z,13.81
2019-03-04T11:32:05.564Z,13.88
2019-03-04T11:33:05.529Z,13.94
2019-03-04T11:34:05.611Z,14.00
2019-03-04T11:35:05.458Z,14.00
2019-03-04T11:36:05.771Z,14.00
2019-03-04T11:37:05.846Z,14.00
2019-03-04T11:38:05.767Z,14.00
2019-03-04T11:39:05.931Z,14.00
2019-03-04T11:40:05.372Z,14.00
2019-03-04T11:41:05.935Z,14.00
2019-03-04T11:42:05.937Z,13.94
2019-03-04T11:43:05.853Z,13.94
2019-03-04T11:44:05.751Z,13.94
2019-03-04T11:45:05.130Z,13.88
2019-03-04T11:46:05.512Z,13.88
2019-03-04T11:47:05.052Z,13.81
2019-03-04T11:48:05.046Z,13.75
2019-03-04T11:49:05.129Z,13.75
2019-03-04T11:50:05.210Z,13.69
2019-03-04T11:51:05.386Z,13.69
2019-03-04T11:52:05.772Z,13.69
2019-03-04T11:53:05.780Z,13.69
2019-03-04T11:54:04.962Z,13.69
2019-03-04T11:55:05.937Z,13.69
2019-03-04T11:56:05.039Z,13.62
2019-03-04T11:57:05.370Z,13.62
2019-03-04T11:58:05.685Z,13.62
2019-03-04T11:59:05.862Z,13.56
2019-03-04T12:00:05.661Z,13.56
2019-03-04T12:01:05.784Z,13.56
2019-03-04T12:02:05.757Z,13.56
2019-03-04T12:03:04.971Z,13.56
2019-03-04T12:04:05.923Z,13.56
2019-03-04T12:05:05.460Z,13.50
2019-03-04T12:06:05.286Z,13.50
2019-03-04T12:07:05.292Z,13.44
2019-03-04T12:08:05.378Z,13.44
2019-03-04T12:09:05.192Z,13.44
2019-03-04T12:10:05.516Z,13.44
2019-03-04T12:11:05.609Z,13.44
2019-03-04T12:12:05.523Z,13.38
2019-03-04T12:13:05.429Z,13.38
2019-03-04T12:14:04.983Z,13.38
2019-03-04T12:15:05.280Z,13.31
2019-03-04T12:16:05.197Z,13.31
2019-03-04T12:17:05.296Z,13.31
2019-03-04T12:18:05.335Z,13.31
2019-03-04T12:19:05.535Z,13.19
2019-03-04T12:20:04.967Z,13.19
2019-03-04T12:21:05.362Z,13.19
2019-03-04T12:22:05.766Z,13.12
2019-03-04T12:23:05.752Z,13.12
2019-03-04T12:24:05.212Z,13.12
2019-03-04T12:25:05.537Z,13.06
2019-03-04T12:26:05.636Z,13.06
2019-03-04T12:27:05.615Z,13.06
2019-03-04T12:28:05.535Z,13.06
2019-03-04T12:29:05.535Z,13.00
2019-03-04T12:30:05.542Z,13.00
2019-03-04T12:31:05.365Z,13.00
2019-03-04T12:32:05.947Z,13.00
2019-03-04T12:33:05.145Z,12.94
2019-03-04T12:34:06.103Z,12.94
2019-03-04T12:35:05.207Z,12.88
2019-03-04T12:36:05.757Z,12.88
2019-03-04T12:37:05.395Z,12.81
2019-03-04T12:38:05.783Z,12.81
2019-03-04T12:39:06.240Z,12.81
2019-03-04T12:40:06.583Z,12.75
2019-03-04T12:41:05.732Z,12.75
2019-03-04T12:42:05.958Z,12.75
2019-03-04T12:43:05.632Z,12.75
2019-03-04T12:44:05.932Z,12.69
2019-03-04T12:45:05.959Z,12.69
2019-03-04T12:46:06.046Z,12.69
2019-03-04T12:47:06.156Z,12.69
2019-03-04T12:48:05.809Z,12.69
2019-03-04T12:49:06.125Z,12.69
2019-03-04T12:50:05.480Z,12.69
2019-03-04T12:51:05.975Z,12.69
2019-03-04T12:52:05.715Z,12.69